createdAt,value
2023-03-13T00:02:52.970Z,22.03
2023-03-13T00:06:53.057Z,22.03
2023-03-13T00:10:53.119Z,22.02
2023-03-13T00:14:53.189Z,22.01
2023-03-13T00:18:53.278Z,22.01
2023-03-13T00:22:53.399Z,22.00
2023-03-13T00:26:53.474Z,21.97
2023-03-13T00:30:53.605Z,21.97
2023-03-13T00:34:53.618Z,21.97
2023-03-13T00:38:53.703Z,21.96
2023-03-13T00:42:53.818Z,21.95
2023-03-13T00:46:53.919Z,21.95
2023-03-13T00:50:53.971Z,21.95
2023-03-13T00:54:54.084Z,21.95
2023-03-13T00:58:54.167Z,21.95
2023-03-13T01:02:54.473Z,21.95
2023-03-13T01:06:54.414Z,21.95
2023-03-13T01:10:54.502Z,21.93
2023-03-13T01:14:54.604Z,21.94
2023-03-13T01:18:54.719Z,21.94
2023-03-13T01:22:54.861Z,21.94
2023-03-13T01:26:54.962Z,21.94
2023-03-13T01:30:55.124Z,21.93
2023-03-13T01:34:55.174Z,21.93
2023-03-13T01:38:55.272Z,21.94
2023-03-13T01:42:55.353Z,21.94
2023-03-13T01:46:55.500Z,21.93
2023-03-13T01:50:55.569Z,21.93
2023-03-13T01:54:55.691Z,21.91
2023-03-13T01:58:55.766Z,21.91
2023-03-13T02:02:55.908Z,21.92
2023-03-13T02:06:55.964Z,21.90
2023-03-13T02:10:56.043Z,21.90
2023-03-13T02:14:56.171Z,21.90
2023-03-13T02:18:56.295Z,21.89
2023-03-13T02:22:56.379Z,21.89
2023-03-13T02:26:56.493Z,21.90
2023-03-13T02:30:56.687Z,21.90
2023-03-13T02:34:56.657Z,21.91
2023-03-13T02:38:56.783Z,21.92
2023-03-13T02:42:56.875Z,21.91
2023-03-13T02:46:57.029Z,21.91
2023-03-13T02:50:57.105Z,21.90
2023-03-13T02:54:57.223Z,21.89
2023-03-13T02:58:57.310Z,21.89
2023-03-13T03:02:57.438Z,21.89
2023-03-13T03:06:57.516Z,21.89
2023-03-13T03:10:57.586Z,21.89
2023-03-13T03:14:57.710Z,21.89
2023-03-13T03:18:57.831Z,21.88
2023-03-13T03:22:57.945Z,21.89
2023-03-13T03:26:58.036Z,21.89
2023-03-13T03:30:58.185Z,21.88
2023-03-13T03:34:58.301Z,21.87
2023-03-13T03:38:58.446Z,21.87
2023-03-13T03:42:58.589Z,21.88
2023-03-13T03:46:59.623Z,21.87
2023-03-13T03:50:58.793Z,21.87
2023-03-13T03:54:58.924Z,21.87
2023-03-13T03:58:59.042Z,21.88
2023-03-13T04:02:59.217Z,21.88
2023-03-13T04:06:59.560Z,21.89
2023-03-13T04:10:59.445Z,21.89
2023-03-13T04:14:59.464Z,21.88
2023-03-13T04:18:59.592Z,21.88
2023-03-13T04:22:59.710Z,21.87
2023-03-13T04:26:59.905Z,21.88
2023-03-13T04:31:00.025Z,21.87
2023-03-13T04:35:00.184Z,21.87
2023-03-13T04:39:00.265Z,21.87
2023-03-13T04:43:00.412Z,21.87
2023-03-13T04:47:00.486Z,21.87
2023-03-13T04:51:00.590Z,21.87
2023-03-13T04:55:00.718Z,21.87
2023-03-13T04:59:00.852Z,21.86
2023-03-13T05:03:00.932Z,21.86
2023-03-13T05:07:01.046Z,21.85
2023-03-13T05:11:01.197Z,21.84
2023-03-13T05:15:01.259Z,21.84
2023-03-13T05:19:01.334Z,21.85
2023-03-13T05:23:01.432Z,21.84
2023-03-13T05:27:01.525Z,21.85
2023-03-13T05:31:01.663Z,21.85
2023-03-13T05:35:01.732Z,21.85
2023-03-13T05:39:01.794Z,21.86
2023-03-13T05:43:01.875Z,21.86
2023-03-13T05:47:03.959Z,21.88
2023-03-13T05:51:01.983Z,21.91
2023-03-13T05:55:02.114Z,21.94
2023-03-13T05:59:02.109Z,21.98
2023-03-13T06:03:02.099Z,22.04
2023-03-13T06:07:02.099Z,22.10
2023-03-13T06:11:02.124Z,22.15
2023-03-13T06:15:02.164Z,22.18
2023-03-13T06:19:02.186Z,22.23
2023-03-13T06:23:02.240Z,22.27
2023-03-13T06:27:02.310Z,22.37
2023-03-13T06:31:02.413Z,22.44
2023-03-13T06:35:02.523Z,22.63
2023-03-13T06:39:02.716Z,22.74
2023-03-13T06:43:02.946Z,22.89
2023-03-13T06:47:03.047Z,22.93
2023-03-13T06:51:03.134Z,23.09
2023-03-13T06:55:03.097Z,23.16
2023-03-13T06:59:03.185Z,23.30
2023-03-13T07:03:03.654Z,23.41
2023-03-13T07:07:03.438Z,23.46
2023-03-13T07:11:03.651Z,23.54
2023-03-13T07:15:03.414Z,23.66
2023-03-13T07:19:03.330Z,23.70
2023-03-13T07:23:03.727Z,23.75
2023-03-13T07:27:07.455Z,23.80
2023-03-13T07:31:03.809Z,23.79
2023-03-13T07:35:03.178Z,23.79
2023-03-13T07:39:03.249Z,23.79
2023-03-13T07:43:03.524Z,23.77
2023-03-13T07:47:04.142Z,23.79
2023-03-13T07:51:03.883Z,23.86
2023-03-13T07:55:04.116Z,23.97
2023-03-13T07:59:04.355Z,23.97
2023-03-13T08:03:04.543Z,23.96
2023-03-13T08:07:05.380Z,23.98
2023-03-13T08:11:05.144Z,23.98
2023-03-13T08:15:05.098Z,24.00
2023-03-13T08:19:05.247Z,24.04
2023-03-13T08:23:05.420Z,24.06
2023-03-13T08:27:05.679Z,24.10
2023-03-13T08:31:06.171Z,24.09
2023-03-13T08:35:06.189Z,24.08
2023-03-13T08:39:06.173Z,23.92
2023-03-13T08:43:06.354Z,23.91
2023-03-13T08:47:06.564Z,23.95
2023-03-13T08:51:06.800Z,24.00
2023-03-13T08:55:06.923Z,24.14
2023-03-13T08:59:07.072Z,24.22
2023-03-13T09:03:07.178Z,24.24
2023-03-13T09:07:07.688Z,24.28
2023-03-13T09:11:07.693Z,24.27
2023-03-13T09:15:07.672Z,24.30
2023-03-13T09:19:07.474Z,24.32
2023-03-13T09:23:07.716Z,24.31
2023-03-13T09:27:07.659Z,24.38
2023-03-13T09:31:07.752Z,24.46
2023-03-13T09:35:07.809Z,24.52
2023-03-13T09:39:08.199Z,24.56
2023-03-13T09:43:07.689Z,24.54
2023-03-13T09:47:07.739Z,24.51
2023-03-13T09:51:07.597Z,24.50
2023-03-13T09:55:07.579Z,24.63
2023-03-13T09:59:09.766Z,24.82
2023-03-13T10:03:07.708Z,24.76
2023-03-13T10:07:07.496Z,24.85
2023-03-13T10:11:07.736Z,24.91
2023-03-13T10:15:07.725Z,25.01
2023-03-13T10:19:07.366Z,24.96
2023-03-13T10:23:08.259Z,24.98
2023-03-13T10:27:08.342Z,24.96
2023-03-13T10:31:07.737Z,24.95
2023-03-13T10:35:07.727Z,25.03
2023-03-13T10:39:07.744Z,25.09
2023-03-13T10:43:07.649Z,25.14
2023-03-13T10:47:07.808Z,25.20
2023-03-13T10:51:08.739Z,25.20
2023-03-13T10:55:08.253Z,25.24
2023-03-13T10:59:08.246Z,25.32
2023-03-13T11:03:08.452Z,25.20
2023-03-13T11:07:08.604Z,25.07
2023-03-13T11:11:08.733Z,25.02
2023-03-13T11:15:08.822Z,24.93
2023-03-13T11:19:08.499Z,24.92
2023-03-13T11:23:12.307Z,25.03
2023-03-13T11:27:08.932Z,25.05
2023-03-13T11:31:08.839Z,25.05
2023-03-13T11:35:08.799Z,25.11
2023-03-13T11:39:08.500Z,25.11
2023-03-13T11:43:23.699Z,25.12
2023-03-13T11:47:09.672Z,25.13
2023-03-13T11:51:10.157Z,25.18
2023-03-13T11:55:08.750Z,25.26
2023-03-13T11:59:08.499Z,25.31
2023-03-13T12:03:08.483Z,25.30
2023-03-13T12:07:08.746Z,25.31
2023-03-13T12:11:08.729Z,25.31
2023-03-13T12:15:08.780Z,25.32
2023-03-13T12:19:08.832Z,25.26
2023-03-13T12:23:09.248Z,25.17
2023-03-13T12:27:09.125Z,25.08
2023-03-13T12:31:09.332Z,25.03
2023-03-13T12:35:09.425Z,24.92
2023-03-13T12:39:09.605Z,24.87
2023-03-13T12:43:09.716Z,24.85
2023-03-13T12:47:09.869Z,24.84
2023-03-13T12:51:09.870Z,24.85
2023-03-13T12:55:09.797Z,24.85
2023-03-13T12:59:09.735Z,24.82
2023-03-13T13:03:11.327Z,24.87
2023-03-13T13:07:09.677Z,24.90
2023-03-13T13:11:09.620Z,24.91
2023-03-13T13:15:09.622Z,24.90
2023-03-13T13:19:09.561Z,24.90
2023-03-13T13:23:09.510Z,24.90
2023-03-13T13:27:09.485Z,24.90
2023-03-13T13:31:09.958Z,24.88
2023-03-13T13:35:09.448Z,24.87
2023-03-13T13:39:09.406Z,24.86
2023-03-13T13:43:09.334Z,24.85
2023-03-13T13:47:09.363Z,24.85
2023-03-13T13:51:09.284Z,24.84
2023-03-13T13:55:09.214Z,24.83
2023-03-13T13:59:09.181Z,24.82
2023-03-13T14:03:09.144Z,24.80
2023-03-13T14:07:09.325Z,24.78
2023-03-13T14:11:09.038Z,24.77
2023-03-13T14:15:09.022Z,24.76
2023-03-13T14:19:09.016Z,24.74
2023-03-13T14:23:08.953Z,24.73
2023-03-13T14:27:08.948Z,24.72
2023-03-13T14:31:08.919Z,24.71
2023-03-13T14:35:08.827Z,24.69
2023-03-13T14:39:08.850Z,24.67
2023-03-13T14:43:08.801Z,24.65
2023-03-13T14:47:08.822Z,24.63
2023-03-13T14:51:15.191Z,24.60
2023-03-13T14:55:09.683Z,24.58
2023-03-13T14:59:08.690Z,24.57
2023-03-13T15:03:08.689Z,24.56
2023-03-13T15:07:08.706Z,24.54
2023-03-13T15:11:08.631Z,24.52
2023-03-13T15:15:08.667Z,24.49
2023-03-13T15:19:08.606Z,24.47
2023-03-13T15:23:08.530Z,24.46
2023-03-13T15:27:08.533Z,24.43
2023-03-13T15:31:08.477Z,24.41
2023-03-13T15:35:08.424Z,24.38
2023-03-13T15:39:08.392Z,24.37
2023-03-13T15:43:08.365Z,24.35
2023-03-13T15:47:08.304Z,24.34
2023-03-13T15:51:08.246Z,24.31
2023-03-13T15:55:08.237Z,24.30
2023-03-13T15:59:08.202Z,24.29
2023-03-13T16:03:08.161Z,24.28
2023-03-13T16:07:08.095Z,24.27
2023-03-13T16:11:08.096Z,24.26
2023-03-13T16:15:08.065Z,24.24
2023-03-13T16:19:08.030Z,24.22
2023-03-13T16:23:08.357Z,24.20
2023-03-13T16:27:08.270Z,24.18
2023-03-13T16:31:08.520Z,24.14
2023-03-13T16:35:08.482Z,24.12
2023-03-13T16:39:08.612Z,24.09
2023-03-13T16:43:08.807Z,24.09
2023-03-13T16:47:08.958Z,24.07
2023-03-13T16:51:09.091Z,24.06
2023-03-13T16:55:09.224Z,24.04
2023-03-13T16:59:09.376Z,24.02
2023-03-13T17:03:09.532Z,24.00
2023-03-13T17:07:09.736Z,23.98
2023-03-13T17:11:09.914Z,23.98
2023-03-13T17:15:10.089Z,23.96
2023-03-13T17:19:10.285Z,23.94
2023-03-13T17:23:10.456Z,23.92
2023-03-13T17:27:10.690Z,23.91
2023-03-13T17:31:10.909Z,23.90
2023-03-13T17:35:11.107Z,23.89
2023-03-13T17:39:11.251Z,23.87
2023-03-13T17:43:11.475Z,23.86
2023-03-13T17:47:11.709Z,23.84
2023-03-13T17:51:11.930Z,23.83
2023-03-13T17:55:12.116Z,23.82
2023-03-13T17:59:12.312Z,23.81
2023-03-13T18:03:12.697Z,23.80
2023-03-13T18:07:12.771Z,23.80
2023-03-13T18:11:13.045Z,23.78
2023-03-13T18:15:13.228Z,23.78
2023-03-13T18:19:13.394Z,23.77
2023-03-13T18:23:13.613Z,23.76
2023-03-13T18:27:13.848Z,23.75
2023-03-13T18:31:14.050Z,23.74
2023-03-13T18:35:14.239Z,23.74
2023-03-13T18:39:14.493Z,23.72
2023-03-13T18:43:14.680Z,23.71
2023-03-13T18:47:14.878Z,23.71
2023-03-13T18:51:15.093Z,23.70
2023-03-13T18:55:15.318Z,23.70
2023-03-13T18:59:15.533Z,23.69
2023-03-13T19:03:15.774Z,23.69
2023-03-13T19:07:15.996Z,23.68
2023-03-13T19:11:16.189Z,23.68
2023-03-13T19:15:16.414Z,23.67
2023-03-13T19:19:16.623Z,23.67
2023-03-13T19:23:16.893Z,23.65
2023-03-13T19:27:17.144Z,23.65
2023-03-13T19:31:18.643Z,23.64
2023-03-13T19:35:17.534Z,23.64
2023-03-13T19:39:17.472Z,23.63
2023-03-13T19:43:17.475Z,23.62
2023-03-13T19:47:17.415Z,23.63
2023-03-13T19:51:17.347Z,23.62
2023-03-13T19:55:17.312Z,23.62
2023-03-13T19:59:17.279Z,23.62
2023-03-13T20:03:17.258Z,23.62
2023-03-13T20:07:17.227Z,23.61
2023-03-13T20:11:17.187Z,23.61
2023-03-13T20:15:17.121Z,23.60
2023-03-13T20:19:17.110Z,23.60
2023-03-13T20:23:17.076Z,23.60
2023-03-13T20:27:17.490Z,23.60
2023-03-13T20:31:17.022Z,23.60
2023-03-13T20:35:16.965Z,23.59
2023-03-13T20:39:16.932Z,23.60
2023-03-13T20:43:16.893Z,23.59
2023-03-13T20:47:16.845Z,23.59
2023-03-13T20:51:16.816Z,23.58
2023-03-13T20:55:16.862Z,23.58
2023-03-13T20:59:16.821Z,23.59
2023-03-13T21:03:16.787Z,23.59
2023-03-13T21:07:16.754Z,23.59
2023-03-13T21:11:16.695Z,23.58
2023-03-13T21:15:16.665Z,23.58
2023-03-13T21:19:16.630Z,23.58
2023-03-13T21:23:16.611Z,23.58
2023-03-13T21:27:16.572Z,23.58
2023-03-13T21:31:16.662Z,23.57
2023-03-13T21:35:16.565Z,23.57
2023-03-13T21:39:16.542Z,23.57
2023-03-13T21:43:16.974Z,23.57
2023-03-13T21:47:16.460Z,23.56
2023-03-13T21:51:16.420Z,23.56
2023-03-13T21:55:16.357Z,23.56
2023-03-13T21:59:16.346Z,23.56
2023-03-13T22:03:16.324Z,23.56
2023-03-13T22:07:16.287Z,23.56
2023-03-13T22:11:16.219Z,23.55
2023-03-13T22:15:16.425Z,23.56
2023-03-13T22:19:16.406Z,23.55
2023-03-13T22:23:16.415Z,23.56
2023-03-13T22:27:16.317Z,23.55
2023-03-13T22:31:16.272Z,23.55
2023-03-13T22:35:16.274Z,23.55
2023-03-13T22:39:16.211Z,23.55
2023-03-13T22:43:16.193Z,23.55
2023-03-13T22:47:16.136Z,23.54
2023-03-13T22:51:16.118Z,23.54
2023-03-13T22:55:16.151Z,23.54
2023-03-13T22:59:16.113Z,23.53
2023-03-13T23:03:17.691Z,23.53
2023-03-13T23:07:16.025Z,23.53
2023-03-13T23:11:15.991Z,23.53
2023-03-13T23:15:15.992Z,23.52
2023-03-13T23:19:15.967Z,23.51
2023-03-13T23:23:15.908Z,23.52
2023-03-13T23:27:15.882Z,23.51
2023-03-13T23:31:15.863Z,23.52
2023-03-13T23:35:15.802Z,23.51
2023-03-13T23:39:15.797Z,23.51
2023-03-13T23:43:15.711Z,23.51
2023-03-13T23:47:15.691Z,23.51
2023-03-13T23:51:15.667Z,23.50
2023-03-13T23:55:15.628Z,23.50
2023-03-13T23:59:15.852Z,23.49
